Time;durP1;ratioP1;P1;durP2;ratioP2;P2;SDS_P1;SDS_P2;PMS_P1;PMS_P2;Temp;Humidity;BMP_temperature;BMP_pressure;BME280_temperature;BME280_humidity;BME280_pressure;Samples;Min_cycle;Max_cycle;Signal;HPM_P1;HPM_P2
2023/05/20 00:02:08;;;;;;;;;;;;;;;16.28;48.30;100861.53;5076868;28;1093;-56
2023/05/20 00:04:33;;;;;;;;;;;;;;;16.09;47.85;100859.28;5076728;28;1154;-56
2023/05/20 00:06:59;;;;;;;;;;;;;;;15.96;47.16;100859.75;5083131;28;915;-56
2023/05/20 00:09:24;;;;;;;;;;;;;;;15.90;46.97;100853.44;5077340;28;1114;-56
2023/05/20 00:11:50;;;;;;;;;;;;;;;15.93;46.30;100854.81;5076902;28;1058;-56
2023/05/20 00:14:15;;;;;;;;;;;;;;;15.79;46.34;100852.56;5076736;28;1221;-56
2023/05/20 00:16:42;;;;;;;;;;;;;;;16.56;47.05;100846.50;5076755;28;1078;-56
2023/05/20 00:19:07;;;;;;;;;;;;;;;16.45;47.69;100839.34;5076270;28;1959;-55
2023/05/20 00:21:33;;;;;;;;;;;;;;;16.17;47.52;100853.28;5075424;28;2296;-56
2023/05/20 00:23:58;;;;;;;;;;;;;;;15.94;47.31;100843.59;5076610;28;1047;-57
2023/05/20 00:26:25;;;;;;;;;;;;;;;15.94;46.62;100842.78;5076375;28;1067;-57
2023/05/20 00:28:53;;;;;;;;;;;;;;;16.68;47.77;100852.56;5076595;28;1073;-56
2023/05/20 00:31:19;;;;;;;;;;;;;;;16.26;47.66;100848.09;5063491;28;857;-57
2023/05/20 00:33:44;;;;;;;;;;;;;;;16.06;47.62;100849.66;5076356;28;1127;-57
2023/05/20 00:36:10;;;;;;;;;;;;;;;16.77;47.63;100847.38;5059063;28;1221;-57
2023/05/20 00:38:36;;;;;;;;;;;;;;;16.48;48.38;100842.41;5076581;28;1162;-57
2023/05/20 00:41:01;;;;;;;;;;;;;;;16.28;47.81;100847.81;5076510;28;1991;-56
2023/05/20 00:43:27;;;;;;;;;;;;;;;16.10;47.26;100844.47;5086851;28;1126;-56
2023/05/20 00:45:52;;;;;;;;;;;;;;;16.06;46.80;100838.69;5075447;28;1078;-56
2023/05/20 00:48:18;;;;;;;;;;;;;;;16.04;46.28;100845.53;5058181;28;1306;-57
2023/05/20 00:50:44;;;;;;;;;;;;;;;16.73;47.52;100849.84;5058444;28;1107;-55
2023/05/20 00:53:09;;;;;;;;;;;;;;;16.37;47.67;100838.78;5058348;28;1522;-55
2023/05/20 00:55:35;;;;;;;;;;;;;;;16.08;47.63;100846.66;5065701;28;1194;-56
2023/05/20 00:58:00;;;;;;;;;;;;;;;16.08;47.10;100841.97;5056645;28;1043;-56
2023/05/20 01:00:26;;;;;;;;;;;;;;;16.58;47.41;100841.59;5038171;28;1914;-56
2023/05/20 01:02:51;;;;;;;;;;;;;;;16.68;48.44;100835.28;5048609;28;1067;-56
2023/05/20 01:05:17;;;;;;;;;;;;;;;16.26;47.96;100831.63;5057879;28;1010;-56
2023/05/20 01:07:43;;;;;;;;;;;;;;;16.24;47.41;100826.41;5062998;28;845;-56
2023/05/20 01:10:08;;;;;;;;;;;;;;;16.07;46.87;100834.03;5057499;28;1115;-56
2023/05/20 01:12:45;;;;;;;;;;;;;;;15.99;46.70;100829.91;5076241;28;1109;-56
2023/05/20 01:15:11;;;;;;;;;;;;;;;16.53;47.20;100833.34;5075857;28;1269;-56
2023/05/20 01:17:38;;;;;;;;;;;;;;;16.42;47.97;100827.00;5076023;28;1059;-56
2023/05/20 01:20:06;;;;;;;;;;;;;;;16.19;47.59;100834.63;5088178;28;1917;-56
2023/05/20 01:22:31;;;;;;;;;;;;;;;16.04;47.17;100829.91;5055203;28;1259;-56
2023/05/20 01:24:57;;;;;;;;;;;;;;;15.99;46.77;100827.16;5055533;28;1222;-56
2023/05/20 01:27:25;;;;;;;;;;;;;;;15.94;46.21;100816.16;5068892;28;1198;-56
2023/05/20 01:29:50;;;;;;;;;;;;;;;16.01;45.95;100824.97;5072129;28;1339;-56
2023/05/20 01:32:20;;;;;;;;;;;;;;;15.97;45.60;100814.81;5083369;28;868;-57
2023/05/20 01:34:46;;;;;;;;;;;;;;;16.93;47.02;100813.34;5087281;28;1182;-56
2023/05/20 01:37:13;;;;;;;;;;;;;;;16.26;47.70;100815.16;5047819;28;1102;-56
2023/05/20 01:39:42;;;;;;;;;;;;;;;16.16;47.45;100820.59;5050901;28;1910;-57
2023/05/20 01:42:08;;;;;;;;;;;;;;;16.08;46.76;100822.78;5051596;28;1068;-56
2023/05/20 01:44:33;;;;;;;;;;;;;;;15.99;46.31;100821.66;5045598;28;1304;-56
2023/05/20 01:47:00;;;;;;;;;;;;;;;15.94;46.04;100829.88;5075051;28;1361;-56
2023/05/20 01:49:25;;;;;;;;;;;;;;;16.01;45.56;100830.44;5055628;28;1135;-57
2023/05/20 01:51:51;;;;;;;;;;;;;;;16.81;46.78;100834.75;5075844;28;1085;-57
2023/05/20 01:54:16;;;;;;;;;;;;;;;16.20;47.77;100833.53;5071964;28;1412;-57
2023/05/20 01:56:42;;;;;;;;;;;;;;;16.01;47.48;100835.13;5065448;28;931;-56
2023/05/20 01:59:08;;;;;;;;;;;;;;;16.07;46.50;100826.63;5060588;28;2047;-56
2023/05/20 02:01:33;;;;;;;;;;;;;;;15.95;46.39;100837.00;5061358;28;1214;-56
2023/05/20 02:03:59;;;;;;;;;;;;;;;15.96;46.02;100833.16;5061241;28;1409;-56
2023/05/20 02:06:24;;;;;;;;;;;;;;;16.20;46.51;100844.50;5080219;28;1154;-57
2023/05/20 02:08:50;;;;;;;;;;;;;;;16.30;47.14;100851.94;5061807;28;2075;-57
2023/05/20 02:11:17;;;;;;;;;;;;;;;16.11;47.21;100845.31;5044801;28;1214;-57
2023/05/20 02:13:43;;;;;;;;;;;;;;;15.91;46.67;100846.88;5079328;28;1125;-57
2023/05/20 02:16:08;;;;;;;;;;;;;;;16.45;47.08;100850.34;5061359;28;1293;-56
2023/05/20 02:18:34;;;;;;;;;;;;;;;16.35;47.76;100851.94;5062498;28;1226;-56
2023/05/20 02:21:03;;;;;;;;;;;;;;;16.02;47.57;100853.19;5086525;28;1905;-56
2023/05/20 02:23:29;;;;;;;;;;;;;;;16.00;47.08;100861.69;5061174;28;1237;-56
2023/05/20 02:25:57;;;;;;;;;;;;;;;15.97;46.34;100853.19;5078701;28;1130;-56
2023/05/20 02:28:22;;;;;;;;;;;;;;;15.89;46.41;100858.09;5078818;28;1063;-56
2023/05/20 02:30:50;;;;;;;;;;;;;;;15.82;45.95;100860.25;5081830;28;1148;-55
2023/05/20 02:33:16;;;;;;;;;;;;;;;16.97;46.85;100860.34;5078789;28;1189;-53
2023/05/20 02:35:42;;;;;;;;;;;;;;;16.32;48.27;100857.97;5060894;28;1245;-55
2023/05/20 02:38:07;;;;;;;;;;;;;;;16.05;47.80;100858.97;5078912;28;1237;-56
2023/05/20 02:40:35;;;;;;;;;;;;;;;16.02;47.00;100859.53;5060628;28;1907;-56
2023/05/20 02:43:00;;;;;;;;;;;;;;;16.80;47.40;100873.47;5082638;28;1074;-57
2023/05/20 02:45:26;;;;;;;;;;;;;;;16.25;48.13;100873.88;5067614;28;1248;-57
2023/05/20 02:47:52;;;;;;;;;;;;;;;16.07;47.58;100872.44;5046819;28;1595;-58
2023/05/20 02:50:17;;;;;;;;;;;;;;;16.04;46.87;100876.53;5060723;28;1316;-55
2023/05/20 02:52:44;;;;;;;;;;;;;;;15.99;46.69;100883.91;5078670;28;1185;-56
2023/05/20 02:55:10;;;;;;;;;;;;;;;15.91;46.43;100880.59;5064987;28;1245;-56
2023/05/20 02:57:39;;;;;;;;;;;;;;;15.80;46.18;100878.06;5064547;28;1105;-56
2023/05/20 03:00:09;;;;;;;;;;;;;;;16.33;46.67;100884.34;5060146;28;1960;-55
2023/05/20 03:02:35;;;;;;;;;;;;;;;16.70;47.83;100886.06;5065781;28;1285;-52
2023/05/20 03:05:01;;;;;;;;;;;;;;;16.23;47.99;100882.38;5077847;28;1300;-56
2023/05/20 03:07:27;;;;;;;;;;;;;;;16.05;47.76;100889.16;5055922;28;1625;-57
2023/05/20 03:09:52;;;;;;;;;;;;;;;16.04;47.18;100890.25;5079757;28;1073;-61
2023/05/20 03:12:18;;;;;;;;;;;;;;;16.32;46.86;100899.13;5077805;28;1091;-58
2023/05/20 03:14:43;;;;;;;;;;;;;;;16.41;47.99;100905.78;5060421;28;1150;-57
2023/05/20 03:17:09;;;;;;;;;;;;;;;16.13;47.82;100906.19;5077878;28;1075;-61
2023/05/20 03:19:34;;;;;;;;;;;;;;;16.09;47.01;100903.19;5066288;28;1906;-61
2023/05/20 03:22:03;;;;;;;;;;;;;;;15.95;46.56;100908.31;5064970;28;1205;-57
2023/05/20 03:24:28;;;;;;;;;;;;;;;15.94;46.43;100900.34;5059892;28;1134;-57
2023/05/20 03:26:54;;;;;;;;;;;;;;;15.89;46.01;100904.72;5077995;28;1290;-55
2023/05/20 03:29:21;;;;;;;;;;;;;;;15.80;45.80;100906.31;5077714;28;1150;-56
2023/05/20 03:31:47;;;;;;;;;;;;;;;16.38;46.42;100899.97;5066759;28;1218;-56
2023/05/20 03:34:12;;;;;;;;;;;;;;;16.59;47.67;100901.72;5083491;28;1078;-59
2023/05/20 03:36:38;;;;;;;;;;;;;;;16.16;47.96;100908.41;5059680;28;1232;-58
2023/05/20 03:39:04;;;;;;;;;;;;;;;16.04;47.51;100912.19;5077289;28;1905;-59
2023/05/20 03:41:31;;;;;;;;;;;;;;;15.98;46.60;100907.78;5059615;28;1130;-58
2023/05/20 03:43:56;;;;;;;;;;;;;;;15.83;46.78;100907.69;5049567;28;1276;-62
2023/05/20 03:46:22;;;;;;;;;;;;;;;16.58;47.04;100902.81;5077206;28;1233;-59
2023/05/20 03:48:47;;;;;;;;;;;;;;;16.32;47.42;100901.06;5051533;28;1300;-61
2023/05/20 03:51:13;;;;;;;;;;;;;;;16.10;47.40;100898.50;5052284;28;1214;-60
2023/05/20 03:53:39;;;;;;;;;;;;;;;16.64;47.54;100898.16;5058584;28;1147;-57
2023/05/20 03:56:05;;;;;;;;;;;;;;;16.31;47.85;100897.47;5078922;28;1141;-61
2023/05/20 03:58:30;;;;;;;;;;;;;;;16.20;47.32;100884.81;5066207;28;1194;-65
2023/05/20 04:00:57;;;;;;;;;;;;;;;15.94;47.47;100887.47;5061883;28;1965;-58
2023/05/20 04:03:23;;;;;;;;;;;;;;;16.02;46.82;100889.69;5078995;28;1115;-58
2023/05/20 04:05:49;;;;;;;;;;;;;;;15.97;46.52;100883.38;5079327;28;1234;-58
2023/05/20 04:08:20;;;;;;;;;;;;;;;16.76;47.20;100885.00;5061251;28;1422;-58
2023/05/20 04:10:46;;;;;;;;;;;;;;;16.55;48.34;100883.28;5068712;28;994;-58
2023/05/20 04:13:11;;;;;;;;;;;;;;;16.17;48.07;100883.47;5086694;28;1119;-56
2023/05/20 04:15:37;;;;;;;;;;;;;;;16.16;47.39;100881.81;5070712;28;1193;-66
2023/05/20 04:18:04;;;;;;;;;;;;;;;16.07;46.87;100889.72;5058841;28;1171;-65
2023/05/20 04:20:30;;;;;;;;;;;;;;;17.15;47.74;100885.59;5066485;28;1978;-62
2023/05/20 04:22:56;;;;;;;;;;;;;;;16.42;48.49;100882.72;5076523;28;1321;-64
2023/05/20 04:25:22;;;;;;;;;;;;;;;16.18;48.37;100876.06;5077059;28;1034;-65
2023/05/20 04:27:49;;;;;;;;;;;;;;;16.22;47.26;100874.41;5072731;28;1139;-64
2023/05/20 04:30:17;;;;;;;;;;;;;;;16.05;47.00;100880.13;5067251;28;1131;-67
2023/05/20 04:32:43;;;;;;;;;;;;;;;16.83;48.01;100871.00;5076484;28;1232;-64
2023/05/20 04:35:10;;;;;;;;;;;;;;;16.35;48.51;100865.66;5085283;28;1166;-63
2023/05/20 04:37:37;;;;;;;;;;;;;;;16.22;47.84;100868.94;5064850;28;1221;-66
2023/05/20 04:40:05;;;;;;;;;;;;;;;16.13;47.18;100870.53;5067649;28;1909;-62
2023/05/20 04:42:32;;;;;;;;;;;;;;;16.11;46.79;100861.75;5058783;28;1123;-65
2023/05/20 04:45:00;;;;;;;;;;;;;;;17.15;47.78;100869.94;5059078;28;884;-59
2023/05/20 04:47:28;;;;;;;;;;;;;;;16.35;48.86;100867.59;5063373;28;1334;-58
2023/05/20 04:49:56;;;;;;;;;;;;;;;16.36;47.87;100869.25;5078532;28;1101;-58
2023/05/20 04:52:22;;;;;;;;;;;;;;;16.22;47.02;100869.75;5095736;28;1042;-58
2023/05/20 04:54:49;;;;;;;;;;;;;;;16.01;47.19;100863.34;5078385;28;1082;-56
2023/05/20 04:57:16;;;;;;;;;;;;;;;16.03;46.58;100869.41;5089862;28;1030;-56
2023/05/20 04:59:41;;;;;;;;;;;;;;;16.03;46.54;100877.63;5088494;28;1906;-57
2023/05/20 05:02:07;;;;;;;;;;;;;;;17.03;45.42;100870.22;5071787;28;1193;-58
2023/05/20 05:04:33;;;;;;;;;;;;;;;16.58;46.84;100866.28;5076154;28;1050;-57
2023/05/20 05:06:58;;;;;;;;;;;;;;;16.43;47.62;100865.16;5057619;28;1238;-57
2023/05/20 05:09:24;;;;;;;;;;;;;;;16.24;48.40;100862.09;5089270;28;895;-56
2023/05/20 05:11:51;;;;;;;;;;;;;;;16.19;48.50;100853.00;5059181;28;1418;-59
2023/05/20 05:14:16;;;;;;;;;;;;;;;16.08;49.31;100852.97;5069840;28;1190;-58
2023/05/20 05:16:42;;;;;;;;;;;;;;;15.94;49.69;100857.28;5059581;28;1188;-56
2023/05/20 05:19:08;;;;;;;;;;;;;;;15.90;50.06;100850.69;5070346;28;1964;-57
2023/05/20 05:21:36;;;;;;;;;;;;;;;15.87;50.25;100845.75;5077206;28;1141;-57
2023/05/20 05:24:02;;;;;;;;;;;;;;;15.79;50.68;100844.31;5065949;28;1210;-59
2023/05/20 05:26:28;;;;;;;;;;;;;;;15.71;51.01;100837.41;5063433;28;1158;-62
2023/05/20 05:28:54;;;;;;;;;;;;;;;15.67;51.28;100839.03;5076239;28;1170;-64
2023/05/20 05:31:20;;;;;;;;;;;;;;;17.08;47.92;100836.41;5077058;28;1046;-59
2023/05/20 05:33:45;;;;;;;;;;;;;;;16.68;49.09;100843.53;5088875;28;906;-58
2023/05/20 05:36:11;;;;;;;;;;;;;;;16.26;50.49;100842.59;5093496;28;1091;-57
2023/05/20 05:38:36;;;;;;;;;;;;;;;16.10;50.99;100838.97;5062014;28;1316;-60
2023/05/20 05:41:02;;;;;;;;;;;;;;;15.97;51.28;100834.81;5065837;28;1913;-61
2023/05/20 05:43:28;;;;;;;;;;;;;;;15.87;51.83;100834.78;5081771;28;1205;-61
2023/05/20 05:45:55;;;;;;;;;;;;;;;17.28;48.56;100841.09;5068322;28;1124;-59
2023/05/20 05:48:21;;;;;;;;;;;;;;;16.87;49.61;100843.81;5071371;28;1271;-58
2023/05/20 05:50:47;;;;;;;;;;;;;;;16.39;50.86;100853.06;5061355;28;1188;-56
2023/05/20 05:53:15;;;;;;;;;;;;;;;16.18;51.62;100845.88;5072542;28;1281;-56
2023/05/20 05:55:45;;;;;;;;;;;;;;;16.05;51.88;100847.19;5081147;28;1412;-59
2023/05/20 05:58:11;;;;;;;;;;;;;;;15.96;52.06;100846.88;5081439;28;1128;-57
2023/05/20 06:00:36;;;;;;;;;;;;;;;15.93;52.25;100849.34;5081173;28;1977;-58
2023/05/20 06:03:02;;;;;;;;;;;;;;;16.76;50.66;100857.53;5070345;28;1138;-58
2023/05/20 06:05:31;;;;;;;;;;;;;;;17.05;49.53;100853.47;5051311;28;1111;-57
2023/05/20 06:07:57;;;;;;;;;;;;;;;16.43;51.72;100858.84;5079075;28;1102;-57
2023/05/20 06:10:23;;;;;;;;;;;;;;;16.24;52.06;100861.25;5061461;28;1275;-59
2023/05/20 06:12:49;;;;;;;;;;;;;;;16.08;52.70;100857.63;5069991;28;1109;-60
2023/05/20 06:15:15;;;;;;;;;;;;;;;16.00;52.80;100861.69;5080139;28;1206;-61
2023/05/20 06:17:41;;;;;;;;;;;;;;;15.94;53.09;100857.28;5068841;28;1181;-60
2023/05/20 06:20:07;;;;;;;;;;;;;;;17.05;50.64;100854.25;5062319;28;1905;-59
2023/05/20 06:22:33;;;;;;;;;;;;;;;17.06;50.38;100855.91;5070326;28;1165;-61
2023/05/20 06:25:01;;;;;;;;;;;;;;;16.52;51.73;100850.91;5071225;28;1110;-59
2023/05/20 06:27:27;;;;;;;;;;;;;;;16.26;52.80;100859.06;5062165;28;1157;-58
2023/05/20 06:29:53;;;;;;;;;;;;;;;16.13;53.07;100848.59;5067637;28;1134;-58
2023/05/20 06:32:19;;;;;;;;;;;;;;;16.03;53.22;100852.97;5049530;28;1279;-61
2023/05/20 06:34:44;;;;;;;;;;;;;;;17.19;50.75;100845.47;5060454;28;1161;-61
2023/05/20 06:37:10;;;;;;;;;;;;;;;17.07;51.02;100846.59;5057517;28;1302;-63
2023/05/20 06:39:36;;;;;;;;;;;;;;;16.55;52.19;100853.09;5080469;28;2212;-61
2023/05/20 06:42:02;;;;;;;;;;;;;;;16.32;52.92;100847.00;5064671;28;1572;-60
2023/05/20 06:44:29;;;;;;;;;;;;;;;16.18;53.13;100856.84;5080120;28;1031;-60
2023/05/20 06:47:00;;;;;;;;;;;;;;;16.08;53.32;100857.63;5066268;28;1300;-61
2023/05/20 06:49:25;;;;;;;;;;;;;;;16.03;53.30;100849.38;5085867;28;1106;-62
2023/05/20 06:51:52;;;;;;;;;;;;;;;15.90;53.61;100850.69;5068836;28;1075;-62
2023/05/20 06:54:18;;;;;;;;;;;;;;;15.85;53.74;100858.88;5086064;28;1165;-62
2023/05/20 06:56:44;;;;;;;;;;;;;;;15.82;53.68;100848.44;5054887;28;1285;-65
2023/05/20 06:59:10;;;;;;;;;;;;;;;16.38;53.19;100858.81;5070662;28;1897;-63
2023/05/20 07:01:37;;;;;;;;;;;;;;;17.57;50.22;100866.06;5054249;28;1434;-58
2023/05/20 07:04:03;;;;;;;;;;;;;;;16.70;52.57;100864.09;5050051;28;1326;-56
2023/05/20 07:06:30;;;;;;;;;;;;;;;16.38;53.35;100870.63;5039770;28;1215;-61
2023/05/20 07:08:57;;;;;;;;;;;;;;;16.17;53.71;100866.16;5050679;28;1270;-60
2023/05/20 07:11:23;;;;;;;;;;;;;;;16.06;53.95;100866.13;5049793;28;1205;-61
2023/05/20 07:13:49;;;;;;;;;;;;;;;15.99;53.97;100882.00;5069896;28;1135;-57
2023/05/20 07:16:14;;;;;;;;;;;;;;;17.33;51.20;100867.72;5061337;28;1263;-63
2023/05/20 07:18:44;;;;;;;;;;;;;;;16.87;52.29;100882.25;5079903;28;1217;-65
2023/05/20 07:21:09;;;;;;;;;;;;;;;16.42;53.41;100890.97;5040719;28;1992;-65
2023/05/20 07:23:55;;;;;;;;;;;;;;;16.24;53.77;100899.66;5039152;28;1223;-61
2023/05/20 07:26:21;;;;;;;;;;;;;;;16.13;54.15;100903.44;5047777;28;1403;-65
2023/05/20 07:28:46;;;;;;;;;;;;;;;15.95;54.44;100886.38;5060237;28;1434;-61
2023/05/20 07:31:12;;;;;;;;;;;;;;;15.94;54.32;100901.16;5061971;28;1081;-61
2023/05/20 07:33:41;;;;;;;;;;;;;;;15.91;54.41;100912.69;5071863;28;1406;-62
2023/05/20 07:36:07;;;;;;;;;;;;;;;17.00;52.75;100916.63;5059068;28;1242;-60
2023/05/20 07:38:33;;;;;;;;;;;;;;;16.99;52.48;100904.81;5079228;28;1358;-62
2023/05/20 07:41:03;;;;;;;;;;;;;;;16.44;53.87;100904.41;5048630;28;1894;-63
2023/05/20 07:43:29;;;;;;;;;;;;;;;16.22;54.63;100902.66;5060163;28;1324;-61
2023/05/20 07:45:56;;;;;;;;;;;;;;;16.13;54.45;100908.94;5064179;28;1329;-60
2023/05/20 07:48:21;;;;;;;;;;;;;;;16.03;54.64;100910.56;5059773;28;1271;-62
2023/05/20 07:50:47;;;;;;;;;;;;;;;17.30;52.38;100904.03;5067154;28;1201;-61
2023/05/20 07:53:13;;;;;;;;;;;;;;;16.88;53.15;100903.97;5063035;28;1189;-58
2023/05/20 07:55:38;;;;;;;;;;;;;;;16.47;54.26;100914.03;5078501;28;1182;-60
2023/05/20 07:58:05;;;;;;;;;;;;;;;16.28;54.78;100914.50;5064896;28;1249;-62
2023/05/20 08:00:33;;;;;;;;;;;;;;;16.10;55.06;100920.44;5074236;28;1909;-60
2023/05/20 08:03:02;;;;;;;;;;;;;;;16.06;54.65;100926.47;5066074;28;1262;-61
2023/05/20 08:05:37;;;;;;;;;;;;;;;15.93;55.08;100918.72;5066102;28;1338;-61
2023/05/20 08:08:04;;;;;;;;;;;;;;;16.33;54.57;100928.25;5070528;28;1182;-61
2023/05/20 08:10:39;;;;;;;;;;;;;;;17.69;51.63;100925.44;5073402;28;1060;-63
2023/05/20 08:13:05;;;;;;;;;;;;;;;16.85;53.85;100925.66;5088774;28;1166;-59
2023/05/20 08:15:30;;;;;;;;;;;;;;;16.45;54.72;100921.69;5055756;28;1248;-61
2023/05/20 08:17:56;;;;;;;;;;;;;;;16.25;55.08;100917.78;5081540;28;1153;-65
2023/05/20 08:20:22;;;;;;;;;;;;;;;16.14;55.04;100921.56;5065267;28;1906;-62
2023/05/20 08:22:48;;;;;;;;;;;;;;;16.03;55.34;100928.91;5052492;28;1045;-63
2023/05/20 08:25:14;;;;;;;;;;;;;;;15.98;55.22;100931.66;5090348;28;1130;-62
2023/05/20 08:27:40;;;;;;;;;;;;;;;15.86;55.09;100932.66;5065282;28;1237;-62
2023/05/20 08:30:08;;;;;;;;;;;;;;;15.83;55.05;100933.19;5065668;28;1201;-63
2023/05/20 08:32:35;;;;;;;;;;;;;;;16.77;54.09;100940.72;5056268;28;1427;-59
2023/05/20 08:35:01;;;;;;;;;;;;;;;16.97;53.71;100939.16;5073244;28;1312;-58
2023/05/20 08:37:27;;;;;;;;;;;;;;;16.42;55.08;100934.88;5056451;28;1412;-58
2023/05/20 08:39:53;;;;;;;;;;;;;;;16.19;55.25;100932.56;5094077;28;1980;-61
2023/05/20 08:42:22;;;;;;;;;;;;;;;16.03;55.39;100935.25;5066582;28;1139;-59
2023/05/20 08:44:47;;;;;;;;;;;;;;;15.96;55.22;100937.38;5065467;28;1315;-61
2023/05/20 08:47:13;;;;;;;;;;;;;;;16.45;55.18;100921.69;5044858;28;1178;-60
2023/05/20 08:49:39;;;;;;;;;;;;;;;17.48;52.46;100921.88;5087804;28;1135;-61
2023/05/20 08:52:04;;;;;;;;;;;;;;;16.69;54.38;100925.63;5082757;28;1074;-59
2023/05/20 08:54:44;;;;;;;;;;;;;;;16.37;55.24;100925.81;5088375;28;1151;-59
2023/05/20 08:57:12;;;;;;;;;;;;;;;16.21;55.30;100933.13;5077735;28;1091;-61
2023/05/20 08:59:42;;;;;;;;;;;;;;;16.05;55.47;100918.50;5074503;28;1901;-61
2023/05/20 09:02:07;;;;;;;;;;;;;;;15.99;55.49;100922.31;5069133;28;1129;-60
2023/05/20 09:04:33;;;;;;;;;;;;;;;15.89;55.49;100923.91;5088130;28;1111;-58
2023/05/20 09:06:58;;;;;;;;;;;;;;;15.84;55.55;100923.06;5076943;28;1095;-61
2023/05/20 09:09:24;;;;;;;;;;;;;;;16.94;54.31;100924.03;5093854;28;1260;-61
2023/05/20 09:11:49;;;;;;;;;;;;;;;17.33;53.25;100917.22;5079155;28;953;-60
2023/05/20 09:14:15;;;;;;;;;;;;;;;16.61;55.06;100915.16;5093986;28;1055;-60
2023/05/20 09:16:41;;;;;;;;;;;;;;;16.31;55.56;100910.38;5082230;28;1166;-60
2023/05/20 09:19:08;;;;;;;;;;;;;;;16.15;55.49;100907.59;5093272;28;1905;-60
2023/05/20 09:21:34;;;;;;;;;;;;;;;16.05;55.66;100916.59;5094363;28;1117;-60
2023/05/20 09:24:00;;;;;;;;;;;;;;;15.99;55.51;100908.59;5081240;28;846;-60
2023/05/20 09:26:27;;;;;;;;;;;;;;;16.14;55.75;100910.59;5082931;28;1106;-60
2023/05/20 09:28:54;;;;;;;;;;;;;;;17.56;52.96;100913.91;5084168;28;1174;-60
2023/05/20 09:31:21;;;;;;;;;;;;;;;16.97;54.20;100908.94;5079655;28;1000;-60
2023/05/20 09:33:48;;;;;;;;;;;;;;;16.49;55.27;100906.34;5079925;28;1095;-60
2023/05/20 09:36:13;;;;;;;;;;;;;;;16.35;55.21;100911.50;5082513;28;1193;-60
2023/05/20 09:38:39;;;;;;;;;;;;;;;16.20;55.47;100909.50;5085074;28;1154;-61
2023/05/20 09:41:06;;;;;;;;;;;;;;;16.08;55.48;100904.25;5093100;28;1910;-61
2023/05/20 09:43:32;;;;;;;;;;;;;;;16.04;55.53;100894.91;5096059;28;1058;-60
2023/05/20 09:45:59;;;;;;;;;;;;;;;15.91;55.57;100891.56;5089583;28;1254;-59
2023/05/20 09:48:25;;;;;;;;;;;;;;;15.96;55.72;100893.50;5083988;28;1122;-63
2023/05/20 09:50:51;;;;;;;;;;;;;;;17.38;53.51;100889.72;5058548;28;1192;-60
2023/05/20 09:53:17;;;;;;;;;;;;;;;16.92;54.50;100885.03;5095905;28;1093;-59
2023/05/20 09:55:42;;;;;;;;;;;;;;;16.52;55.54;100883.84;5061777;28;1209;-58
2023/05/20 09:58:08;;;;;;;;;;;;;;;16.25;55.71;100882.09;5066047;28;1111;-59
2023/05/20 10:00:33;;;;;;;;;;;;;;;16.18;55.70;100876.06;5073809;28;1968;-57
2023/05/20 10:02:59;;;;;;;;;;;;;;;16.10;55.60;100871.06;5083432;28;1185;-56
2023/05/20 10:05:26;;;;;;;;;;;;;;;16.91;54.79;100869.66;5070709;28;1137;-56
2023/05/20 10:07:55;;;;;;;;;;;;;;;17.12;54.06;100859.50;5061968;28;1064;-58
2023/05/20 10:10:26;;;;;;;;;;;;;;;16.54;55.21;100862.44;5089943;28;1113;-58
2023/05/20 10:12:52;;;;;;;;;;;;;;;16.40;55.64;100864.88;5044743;28;1095;-59
2023/05/20 10:15:20;;;;;;;;;;;;;;;16.22;55.81;100864.25;5084820;28;1140;-59
2023/05/20 10:17:49;;;;;;;;;;;;;;;16.16;55.77;100856.28;5055738;28;1243;-59
2023/05/20 10:20:14;;;;;;;;;;;;;;;16.09;55.68;100848.31;5058780;28;1921;-60
2023/05/20 10:22:40;;;;;;;;;;;;;;;15.98;55.64;100844.69;5059555;28;1285;-59
2023/05/20 10:25:06;;;;;;;;;;;;;;;15.95;55.77;100841.66;5058610;28;1296;-59
2023/05/20 10:27:44;;;;;;;;;;;;;;;15.88;55.60;100833.69;5058742;28;1374;-61
2023/05/20 10:30:17;;;;;;;;;;;;;;;17.14;54.46;100823.50;5060431;28;1199;-58
2023/05/20 10:32:47;;;;;;;;;;;;;;;16.88;54.83;100840.81;5064986;28;1217;-59
2023/05/20 10:35:19;;;;;;;;;;;;;;;16.42;55.71;100832.47;5072246;28;1151;-61
2023/05/20 10:37:46;;;;;;;;;;;;;;;16.23;56.35;100818.47;5053476;28;1028;-59
2023/05/20 10:40:13;;;;;;;;;;;;;;;16.18;55.90;100826.66;5062281;28;1917;-57
2023/05/20 10:42:38;;;;;;;;;;;;;;;16.10;56.00;100818.94;5068541;28;1235;-58
2023/05/20 10:45:05;;;;;;;;;;;;;;;16.06;55.89;100821.41;5065613;28;1226;-57
2023/05/20 10:47:30;;;;;;;;;;;;;;;15.95;55.97;100812.34;5088522;28;1130;-57
2023/05/20 10:49:57;;;;;;;;;;;;;;;15.94;55.84;100815.34;5077556;28;1209;-57
2023/05/20 10:52:22;;;;;;;;;;;;;;;15.98;55.99;100805.50;5069446;28;1261;-57
2023/05/20 10:54:57;;;;;;;;;;;;;;;17.38;53.82;100808.09;5047309;28;1238;-57
2023/05/20 10:57:25;;;;;;;;;;;;;;;16.73;55.55;100813.31;5078335;28;1158;-60
2023/05/20 10:59:50;;;;;;;;;;;;;;;16.38;56.13;100807.53;5064581;28;1906;-60
2023/05/20 11:02:16;;;;;;;;;;;;;;;16.27;56.00;100794.88;5065987;28;1055;-61
2023/05/20 11:04:42;;;;;;;;;;;;;;;16.16;56.34;100794.03;5064875;28;1376;-60
2023/05/20 11:07:07;;;;;;;;;;;;;;;16.10;55.98;100788.78;5064843;28;1190;-60
2023/05/20 11:09:33;;;;;;;;;;;;;;;16.01;56.26;100770.09;5084834;28;1106;-61
2023/05/20 11:11:59;;;;;;;;;;;;;;;15.95;56.11;100773.94;5098148;28;1083;-60
2023/05/20 11:14:26;;;;;;;;;;;;;;;15.88;56.31;100776.91;5071426;28;1027;-61
2023/05/20 11:16:53;;;;;;;;;;;;;;;15.83;56.25;100767.84;5079851;28;1142;-61
2023/05/20 11:19:18;;;;;;;;;;;;;;;15.83;56.11;100774.16;5067120;28;1909;-61
2023/05/20 11:21:44;;;;;;;;;;;;;;;16.25;56.04;100767.69;5098491;28;1105;-61
2023/05/20 11:24:10;;;;;;;;;;;;;;;17.47;54.00;100767.09;5097021;28;907;-61
2023/05/20 11:26:35;;;;;;;;;;;;;;;16.71;55.74;100755.94;5091659;28;1051;-61
2023/05/20 11:29:01;;;;;;;;;;;;;;;16.39;56.47;100762.50;5078244;28;1081;-60
2023/05/20 11:31:26;;;;;;;;;;;;;;;16.28;56.28;100755.34;5090914;28;1162;-60
2023/05/20 11:33:52;;;;;;;;;;;;;;;16.13;56.53;100753.41;5089349;28;1046;-60
2023/05/20 11:36:17;;;;;;;;;;;;;;;16.07;56.34;100752.59;5096483;28;1025;-60
2023/05/20 11:38:45;;;;;;;;;;;;;;;16.06;56.41;100750.09;5097746;28;1153;-60
2023/05/20 11:41:10;;;;;;;;;;;;;;;15.96;56.42;100750.88;5092788;28;1910;-63
2023/05/20 11:43:36;;;;;;;;;;;;;;;15.96;56.44;100744.59;5089618;28;1150;-63
2023/05/20 11:46:01;;;;;;;;;;;;;;;15.86;56.33;100750.84;5092611;28;1327;-61
2023/05/20 11:48:27;;;;;;;;;;;;;;;15.84;56.23;100748.38;5059264;28;1310;-61
2023/05/20 11:50:53;;;;;;;;;;;;;;;16.47;56.18;100741.94;5081757;28;1075;-62
2023/05/20 11:53:22;;;;;;;;;;;;;;;17.55;54.11;100738.22;5086180;28;1130;-61
2023/05/20 11:55:47;;;;;;;;;;;;;;;16.76;56.04;100735.91;5095791;28;1087;-62
2023/05/20 11:58:17;;;;;;;;;;;;;;;16.48;56.56;100734.50;5066663;28;1126;-62
2023/05/20 12:00:43;;;;;;;;;;;;;;;16.31;56.71;100724.59;5082066;28;1918;-61
2023/05/20 12:03:08;;;;;;;;;;;;;;;16.23;56.97;100733.41;5083823;28;1150;-62
2023/05/20 12:05:34;;;;;;;;;;;;;;;16.16;56.52;100739.16;5088105;28;1125;-60
2023/05/20 12:07:59;;;;;;;;;;;;;;;16.06;56.59;100750.94;5076685;28;1200;-60
2023/05/20 12:10:25;;;;;;;;;;;;;;;15.99;56.40;100739.38;5085969;28;1107;-60
2023/05/20 12:12:50;;;;;;;;;;;;;;;15.94;56.51;100739.38;5094385;28;1079;-61
2023/05/20 12:15:16;;;;;;;;;;;;;;;15.94;56.37;100741.31;5085996;28;1066;-58
2023/05/20 12:17:48;;;;;;;;;;;;;;;15.87;56.28;100730.56;5094253;28;1170;-58
2023/05/20 12:20:16;;;;;;;;;;;;;;;16.88;55.68;100732.84;5076612;28;1906;-62
2023/05/20 12:22:42;;;;;;;;;;;;;;;17.10;55.11;100727.91;5089776;28;1501;-60
2023/05/20 12:25:10;;;;;;;;;;;;;;;16.55;56.55;100721.31;5076115;28;885;-62
2023/05/20 12:27:35;;;;;;;;;;;;;;;16.39;56.55;100726.81;5076331;28;1069;-63
2023/05/20 12:30:01;;;;;;;;;;;;;;;16.25;56.83;100732.00;5096599;28;1142;-60
2023/05/20 12:32:26;;;;;;;;;;;;;;;16.19;56.85;100724.06;5096318;28;1003;-59
2023/05/20 12:34:52;;;;;;;;;;;;;;;16.13;56.67;100716.91;5096519;28;1014;-60
2023/05/20 12:37:17;;;;;;;;;;;;;;;16.04;56.54;100717.44;5086397;28;868;-61
2023/05/20 12:39:43;;;;;;;;;;;;;;;15.99;56.59;100722.09;5096564;28;1909;-61
2023/05/20 12:42:08;;;;;;;;;;;;;;;15.92;56.60;100714.13;5083573;28;1161;-60
2023/05/20 12:44:34;;;;;;;;;;;;;;;15.90;56.48;100719.06;5089933;28;1119;-61